Time;durP1;ratioP1;P1;durP2;ratioP2;P2;SDS_P1;SDS_P2;PMS_P1;PMS_P2;Temp;Humidity;BMP_temperature;BMP_pressure;BME280_temperature;BME280_humidity;BME280_pressure;Samples;Min_cycle;Max_cycle;Signal;HPM_P1;HPM_P2
2021/03/07 00:00:14;;;;;;;;;;;;;;;20.27;48.17;102237.88;2089520;28;1214;-75
2021/03/07 00:01:14;;;;;;;;;;;;;;;20.28;47.96;102233.03;2087191;28;1606;-74
2021/03/07 00:02:15;;;;;;;;;;;;;;;20.26;48.11;102230.50;2089296;28;1649;-76
2021/03/07 00:03:16;;;;;;;;;;;;;;;20.28;48.02;102228.19;2090380;28;1767;-74
2021/03/07 00:04:17;;;;;;;;;;;;;;;20.27;48.15;102223.66;2086070;28;1980;-74
2021/03/07 00:05:18;;;;;;;;;;;;;;;20.27;48.06;102226.50;2091504;28;1638;-75
2021/03/07 00:06:18;;;;;;;;;;;;;;;20.28;48.23;102221.66;2089304;28;1059;-76
2021/03/07 00:07:19;;;;;;;;;;;;;;;20.27;48.09;102220.81;2086520;28;1797;-80
2021/03/07 00:08:20;;;;;;;;;;;;;;;20.28;48.28;102222.50;2085966;28;2143;-77
2021/03/07 00:09:21;;;;;;;;;;;;;;;20.28;48.10;102219.66;2087123;28;1983;-76
2021/03/07 00:10:21;;;;;;;;;;;;;;;20.28;48.22;102215.97;2087561;28;2105;-75
2021/03/07 00:11:22;;;;;;;;;;;;;;;20.27;48.33;102220.00;2089564;28;1770;-78
2021/03/07 00:12:23;;;;;;;;;;;;;;;20.27;48.15;102217.97;2089573;28;1697;-77
2021/03/07 00:13:24;;;;;;;;;;;;;;;20.28;48.32;102213.13;2090871;28;1203;-77
2021/03/07 00:14:24;;;;;;;;;;;;;;;20.28;48.43;102211.13;2089562;28;1088;-76
2021/03/07 00:15:25;;;;;;;;;;;;;;;20.29;48.32;102215.69;2087273;28;1762;-75
2021/03/07 00:16:26;;;;;;;;;;;;;;;20.30;48.40;102214.50;2087531;28;1564;-73
2021/03/07 00:17:27;;;;;;;;;;;;;;;20.32;48.51;102219.88;2088147;28;1079;-73
2021/03/07 00:18:28;;;;;;;;;;;;;;;20.31;48.43;102212.50;2087041;28;1044;-73
2021/03/07 00:19:29;;;;;;;;;;;;;;;20.33;48.64;102218.72;2086290;28;1536;-73
2021/03/07 00:20:30;;;;;;;;;;;;;;;20.32;48.61;102215.03;2090510;28;1150;-74
2021/03/07 00:21:30;;;;;;;;;;;;;;;20.33;48.77;102210.19;2088924;28;1818;-74
2021/03/07 00:22:31;;;;;;;;;;;;;;;20.33;48.82;102210.19;2089457;28;1513;-74
2021/03/07 00:23:32;;;;;;;;;;;;;;;20.32;48.75;102212.22;2090675;28;1365;-74
2021/03/07 00:24:33;;;;;;;;;;;;;;;20.32;48.85;102214.19;2087972;28;1905;-74
2021/03/07 00:25:34;;;;;;;;;;;;;;;20.32;48.78;102206.53;2088124;28;1061;-74
2021/03/07 00:26:35;;;;;;;;;;;;;;;20.32;48.75;102202.81;2086901;28;1774;-74
2021/03/07 00:27:35;;;;;;;;;;;;;;;20.32;48.87;102203.69;2085499;28;1160;-74
2021/03/07 00:28:36;;;;;;;;;;;;;;;20.33;48.98;102207.34;2087076;28;1092;-73
2021/03/07 00:29:37;;;;;;;;;;;;;;;20.33;49.03;102198.84;2086553;28;999;-75
2021/03/07 00:30:38;;;;;;;;;;;;;;;20.34;49.07;102194.81;2089525;28;2389;-75
2021/03/07 00:31:39;;;;;;;;;;;;;;;20.33;49.03;102196.81;2087633;28;1590;-76
2021/03/07 00:32:40;;;;;;;;;;;;;;;20.34;48.92;102203.34;2089594;28;1882;-75
2021/03/07 00:33:41;;;;;;;;;;;;;;;20.33;49.12;102191.13;2088365;28;1064;-75
2021/03/07 00:34:41;;;;;;;;;;;;;;;20.34;49.08;102198.50;2087648;28;1108;-75
2021/03/07 00:35:42;;;;;;;;;;;;;;;20.32;49.09;102192.31;2086953;28;1778;-75
2021/03/07 00:36:43;;;;;;;;;;;;;;;20.33;48.94;102196.81;2090527;28;1139;-74
2021/03/07 00:37:44;;;;;;;;;;;;;;;20.33;49.12;102188.28;2089843;28;1513;-75
2021/03/07 00:38:44;;;;;;;;;;;;;;;20.33;49.00;102193.16;2090984;28;1215;-75
2021/03/07 00:39:45;;;;;;;;;;;;;;;20.32;48.99;102189.47;2087592;28;1040;-74
2021/03/07 00:40:46;;;;;;;;;;;;;;;20.32;48.88;102192.31;2085628;28;1674;-75
2021/03/07 00:41:47;;;;;;;;;;;;;;;20.32;49.05;102195.16;2089656;28;1665;-73
2021/03/07 00:42:47;;;;;;;;;;;;;;;20.31;49.07;102190.59;2090003;28;996;-75
2021/03/07 00:43:48;;;;;;;;;;;;;;;20.32;49.00;102192.31;2087499;28;1049;-74
2021/03/07 00:44:49;;;;;;;;;;;;;;;20.32;48.94;102191.44;2086980;28;1914;-75
2021/03/07 00:45:50;;;;;;;;;;;;;;;20.32;49.03;102189.47;2088942;28;1678;-76
2021/03/07 00:46:51;;;;;;;;;;;;;;;20.32;49.06;102186.63;2090563;28;1140;-76
2021/03/07 00:47:52;;;;;;;;;;;;;;;20.32;48.99;102192.31;2087204;28;2071;-76
2021/03/07 00:48:53;;;;;;;;;;;;;;;20.32;49.00;102192.31;2086637;28;2125;-75
2021/03/07 00:49:54;;;;;;;;;;;;;;;20.33;48.97;102184.63;2087052;28;1460;-75
2021/03/07 00:50:54;;;;;;;;;;;;;;;20.32;49.08;102178.09;2090620;28;1802;-76
2021/03/07 00:51:55;;;;;;;;;;;;;;;20.32;48.99;102178.09;2088304;28;1633;-74
2021/03/07 00:52:56;;;;;;;;;;;;;;;20.32;49.01;102180.06;2088746;28;1790;-75
2021/03/07 00:53:57;;;;;;;;;;;;;;;20.32;48.96;102180.94;2090387;28;1789;-75
2021/03/07 00:54:57;;;;;;;;;;;;;;;20.32;49.00;102180.94;2089842;28;1239;-76
2021/03/07 00:55:58;;;;;;;;;;;;;;;20.32;49.10;102178.09;2089393;28;1039;-76
2021/03/07 00:56:59;;;;;;;;;;;;;;;20.33;48.99;102174.09;2088878;28;1129;-76
2021/03/07 00:58:00;;;;;;;;;;;;;;;20.32;48.98;102175.25;2088763;28;1191;-73
2021/03/07 00:59:01;;;;;;;;;;;;;;;20.33;49.11;102176.09;2090179;28;1766;-75
2021/03/07 01:00:01;;;;;;;;;;;;;;;20.33;49.09;102179.78;2090201;28;1571;-75
2021/03/07 01:01:02;;;;;;;;;;;;;;;20.33;49.10;102176.09;2087817;28;1731;-75
2021/03/07 01:02:03;;;;;;;;;;;;;;;20.34;49.01;102169.22;2090270;28;1290;-74
2021/03/07 01:03:05;;;;;;;;;;;;;;;20.34;49.02;102166.41;2090096;28;1779;-74
2021/03/07 01:04:06;;;;;;;;;;;;;;;20.34;49.16;102167.22;2087338;28;1902;-73
2021/03/07 01:05:07;;;;;;;;;;;;;;;20.34;49.06;102163.56;2089109;28;1083;-73
2021/03/07 01:06:08;;;;;;;;;;;;;;;20.35;49.01;102166.09;2084918;28;983;-77
2021/03/07 01:07:08;;;;;;;;;;;;;;;20.34;49.02;102161.53;2085668;28;1079;-75
2021/03/07 01:08:09;;;;;;;;;;;;;;;20.34;49.08;102161.53;2089802;28;1137;-75
2021/03/07 01:09:10;;;;;;;;;;;;;;;20.35;49.07;102156.72;2090355;28;1835;-75
2021/03/07 01:10:11;;;;;;;;;;;;;;;20.35;49.17;102160.41;2089253;28;2432;-75
2021/03/07 01:11:11;;;;;;;;;;;;;;;20.35;49.22;102151.88;2090197;28;1469;-75
2021/03/07 01:12:12;;;;;;;;;;;;;;;20.35;49.18;102151.03;2089528;28;1528;-77
2021/03/07 01:13:13;;;;;;;;;;;;;;;20.35;49.20;102154.72;2085187;28;1766;-78
2021/03/07 01:14:13;;;;;;;;;;;;;;;20.35;49.23;102159.56;2090560;28;2185;-78
2021/03/07 01:15:14;;;;;;;;;;;;;;;20.36;49.06;102152.72;2090341;28;1790;-75
2021/03/07 01:16:15;;;;;;;;;;;;;;;20.35;49.05;102154.72;2090023;28;2229;-76
2021/03/07 01:17:17;;;;;;;;;;;;;;;20.34;49.21;102153.03;2086557;28;2048;-77
2021/03/07 01:18:18;;;;;;;;;;;;;;;20.36;49.09;102152.72;2086876;28;1135;-76
2021/03/07 01:19:19;;;;;;;;;;;;;;;20.36;49.27;102141.34;2089395;28;1329;-76
2021/03/07 01:20:20;;;;;;;;;;;;;;;20.36;49.09;102144.19;2090786;28;1140;-75
2021/03/07 01:21:26;;;;;;;;;;;;;;;20.36;49.15;102147.88;2088515;28;1422;-75
2021/03/07 01:22:27;;;;;;;;;;;;;;;20.35;49.30;102137.66;2087788;28;1640;-74
2021/03/07 01:23:28;;;;;;;;;;;;;;;20.35;49.26;102140.50;2089374;28;1758;-74
2021/03/07 01:24:29;;;;;;;;;;;;;;;20.36;49.15;102135.66;2089546;28;1910;-76
2021/03/07 01:25:33;;;;;;;;;;;;;;;20.36;49.32;102135.66;2084742;28;1079;-75
2021/03/07 01:26:34;;;;;;;;;;;;;;;20.36;49.21;102135.66;2090647;28;1103;-74
2021/03/07 01:27:34;;;;;;;;;;;;;;;20.35;49.14;102131.97;2086340;28;1631;-74
2021/03/07 01:28:35;;;;;;;;;;;;;;;20.36;49.09;102130.81;2084048;28;1025;-75
2021/03/07 01:29:36;;;;;;;;;;;;;;;20.37;49.28;102131.66;2090115;28;1117;-75
2021/03/07 01:30:37;;;;;;;;;;;;;;;20.36;49.27;102133.66;2089578;28;2457;-77
2021/03/07 01:31:38;;;;;;;;;;;;;;;20.36;49.29;102130.81;2089144;28;1147;-75
2021/03/07 01:32:39;;;;;;;;;;;;;;;20.36;49.16;102130.81;2087811;28;1723;-76
2021/03/07 01:33:40;;;;;;;;;;;;;;;20.37;49.16;102125.97;2088056;28;1918;-85
2021/03/07 01:34:40;;;;;;;;;;;;;;;20.36;49.34;102127.97;2089700;28;1786;-83
2021/03/07 01:35:41;;;;;;;;;;;;;;;20.35;49.17;102116.94;2090721;28;1062;-83
2021/03/07 01:36:42;;;;;;;;;;;;;;;20.33;49.23;102120.09;2089948;28;1107;-83
2021/03/07 01:37:42;;;;;;;;;;;;;;;20.33;49.16;102120.09;2089745;28;1679;-79
2021/03/07 01:38:43;;;;;;;;;;;;;;;20.34;49.36;102123.75;2089872;28;1393;-76
2021/03/07 01:39:44;;;;;;;;;;;;;;;20.34;49.36;102116.06;2090167;28;1077;-77
2021/03/07 01:40:55;;;;;;;;;;;;;;;20.34;49.21;102120.91;2090222;28;1107;-78
2021/03/07 01:41:56;;;;;;;;;;;;;;;20.34;49.12;102116.06;2090385;28;1190;-75
2021/03/07 01:42:56;;;;;;;;;;;;;;;20.34;49.26;102118.06;2089879;28;1826;-77
2021/03/07 01:43:57;;;;;;;;;;;;;;;20.34;49.20;102106.72;2089559;28;1351;-75
2021/03/07 01:44:58;;;;;;;;;;;;;;;20.34;49.03;102115.22;2088730;28;1917;-76
2021/03/07 01:45:59;;;;;;;;;;;;;;;20.34;49.09;102112.38;2089987;28;1467;-75
2021/03/07 01:46:59;;;;;;;;;;;;;;;20.34;49.09;102104.69;2090375;28;1349;-75
2021/03/07 01:48:00;;;;;;;;;;;;;;;20.34;49.05;102101.84;2089486;28;1802;-75
2021/03/07 01:49:01;;;;;;;;;;;;;;;20.35;49.09;102109.25;2085321;28;1653;-74
2021/03/07 01:50:02;;;;;;;;;;;;;;;20.34;49.10;102101.03;2082180;28;1149;-74
2021/03/07 01:51:03;;;;;;;;;;;;;;;20.35;48.95;102106.41;2089095;28;1138;-74
2021/03/07 01:52:05;;;;;;;;;;;;;;;20.36;48.96;102101.56;2089561;28;1133;-74
2021/03/07 01:53:05;;;;;;;;;;;;;;;20.36;49.03;102107.25;2089567;28;1829;-72
2021/03/07 01:54:06;;;;;;;;;;;;;;;20.35;49.02;102100.72;2088266;28;1737;-74
2021/03/07 01:55:07;;;;;;;;;;;;;;;20.35;48.89;102103.56;2086143;28;1826;-75
2021/03/07 01:56:08;;;;;;;;;;;;;;;20.35;49.02;102100.72;2081989;28;755;-75
2021/03/07 01:57:08;;;;;;;;;;;;;;;20.35;48.91;102097.88;2085780;28;1196;-75
2021/03/07 01:58:09;;;;;;;;;;;;;;;20.35;48.85;102097.88;2087579;28;1636;-75
2021/03/07 01:59:10;;;;;;;;;;;;;;;20.36;49.00;102099.53;2089562;28;1281;-75
2021/03/07 02:00:11;;;;;;;;;;;;;;;20.35;48.91;102100.72;2075022;28;1556;-75
2021/03/07 02:01:12;;;;;;;;;;;;;;;20.35;48.99;102088.50;2080325;28;1961;-75
2021/03/07 02:02:13;;;;;;;;;;;;;;;20.35;48.96;102095.03;2087835;28;1080;-75
2021/03/07 02:03:14;;;;;;;;;;;;;;;20.35;48.91;102088.50;2089894;28;1189;-75
2021/03/07 02:04:15;;;;;;;;;;;;;;;20.35;48.94;102082.81;2089681;28;1213;-75
2021/03/07 02:05:16;;;;;;;;;;;;;;;20.35;48.97;102086.50;2088454;28;1969;-75
2021/03/07 02:06:17;;;;;;;;;;;;;;;20.35;48.97;102089.34;2075068;28;1560;-75
2021/03/07 02:07:18;;;;;;;;;;;;;;;20.35;48.82;102089.34;2080627;28;1083;-75
2021/03/07 02:08:19;;;;;;;;;;;;;;;20.33;48.93;102085.97;2089277;28;1683;-75
2021/03/07 02:09:19;;;;;;;;;;;;;;;20.35;48.98;102088.50;2082173;28;2003;-74
2021/03/07 02:10:20;;;;;;;;;;;;;;;20.35;48.91;102079.97;2089431;28;2099;-74
2021/03/07 02:11:21;;;;;;;;;;;;;;;20.35;48.90;102082.81;2089798;28;1250;-74
2021/03/07 02:12:22;;;;;;;;;;;;;;;20.35;48.89;102086.50;2080310;28;1887;-74
2021/03/07 02:13:22;;;;;;;;;;;;;;;20.35;48.98;102083.66;2080928;28;1738;-74
2021/03/07 02:14:23;;;;;;;;;;;;;;;20.35;48.81;102083.66;2090097;28;1052;-73
2021/03/07 02:15:24;;;;;;;;;;;;;;;20.34;48.81;102079.13;2089520;28;1616;-73
2021/03/07 02:16:27;;;;;;;;;;;;;;;20.35;48.93;102072.28;2089639;28;1696;-74
2021/03/07 02:17:31;;;;;;;;;;;;;;;20.35;48.93;102077.16;2083235;28;1158;-74
2021/03/07 02:18:49;;;;;;;;;;;;;;;20.35;48.78;102077.97;2083345;28;1122;-74
2021/03/07 02:19:52;;;;;;;;;;;;;;;20.35;48.92;102077.97;2088734;28;1197;-73
2021/03/07 02:20:52;;;;;;;;;;;;;;;20.35;48.82;102074.31;2087354;28;1770;-75
2021/03/07 02:21:53;;;;;;;;;;;;;;;20.35;48.84;102060.94;2089811;28;1238;-75
2021/03/07 02:22:54;;;;;;;;;;;;;;;20.36;48.80;102067.44;2088427;28;1399;-75
2021/03/07 02:23:54;;;;;;;;;;;;;;;20.35;48.80;102072.28;2084522;28;1409;-75
2021/03/07 02:24:55;;;;;;;;;;;;;;;20.34;48.81;102064.91;2089952;28;1992;-75
2021/03/07 02:25:56;;;;;;;;;;;;;;;20.35;48.74;102066.59;2089032;28;1631;-76
2021/03/07 02:26:57;;;;;;;;;;;;;;;20.34;48.88;102062.06;2088077;28;1483;-76
2021/03/07 02:27:57;;;;;;;;;;;;;;;20.35;48.78;102060.09;2087505;28;1666;-75
2021/03/07 02:28:58;;;;;;;;;;;;;;;20.35;48.88;102060.09;2086417;28;1884;-75
2021/03/07 02:29:59;;;;;;;;;;;;;;;20.35;48.84;102063.75;2081771;28;2555;-76
2021/03/07 02:30:59;;;;;;;;;;;;;;;20.34;48.88;102067.75;2087127;28;1929;-75
2021/03/07 02:32:00;;;;;;;;;;;;;;;20.35;48.80;102063.75;2093313;28;1064;-75
2021/03/07 02:33:01;;;;;;;;;;;;;;;20.35;48.95;102066.59;2082493;28;1048;-75
2021/03/07 02:34:02;;;;;;;;;;;;;;;20.35;48.88;102055.25;2088885;28;1643;-75
2021/03/07 02:35:03;;;;;;;;;;;;;;;20.35;48.93;102055.25;2080768;28;1164;-75
2021/03/07 02:36:04;;;;;;;;;;;;;;;20.35;48.78;102055.25;2075432;28;1826;-75
2021/03/07 02:37:05;;;;;;;;;;;;;;;20.35;48.75;102058.09;2088934;28;1738;-75
2021/03/07 02:38:06;;;;;;;;;;;;;;;20.35;48.82;102054.41;2087998;28;1891;-75
2021/03/07 02:39:07;;;;;;;;;;;;;;;20.35;48.84;102051.56;2089656;28;1232;-75
2021/03/07 02:40:07;;;;;;;;;;;;;;;20.35;48.91;102048.72;2089999;28;1219;-75
2021/03/07 02:41:08;;;;;;;;;;;;;;;20.34;48.73;102053.53;2090773;28;1758;-74
2021/03/07 02:42:09;;;;;;;;;;;;;;;20.34;48.80;102053.53;2088699;28;1219;-74
2021/03/07 02:43:10;;;;;;;;;;;;;;;20.35;48.79;102052.41;2091522;28;1140;-74
2021/03/07 02:44:11;;;;;;;;;;;;;;;20.35;48.82;102055.25;2090618;28;1636;-74
2021/03/07 02:45:12;;;;;;;;;;;;;;;20.34;48.87;102049.84;2087592;28;2398;-74
2021/03/07 02:46:13;;;;;;;;;;;;;;;20.35;48.75;102045.88;2090966;28;1754;-74
2021/03/07 02:47:14;;;;;;;;;;;;;;;20.35;48.79;102051.56;2091735;28;1055;-74
2021/03/07 02:48:15;;;;;;;;;;;;;;;20.35;48.94;102051.56;2090815;28;1564;-74
2021/03/07 02:49:17;;;;;;;;;;;;;;;20.33;48.86;102042.50;2090126;28;1659;-74
2021/03/07 02:50:18;;;;;;;;;;;;;;;20.36;48.92;102048.38;2090764;28;1096;-74
2021/03/07 02:51:19;;;;;;;;;;;;;;;20.35;48.89;102041.03;2086199;28;1090;-73
2021/03/07 02:52:20;;;;;;;;;;;;;;;20.36;48.88;102050.38;2086139;28;1854;-73
2021/03/07 02:53:20;;;;;;;;;;;;;;;20.35;48.76;102043.88;2090155;28;1203;-73
2021/03/07 02:54:21;;;;;;;;;;;;;;;20.35;48.97;102045.88;2086626;28;1687;-74
2021/03/07 02:55:22;;;;;;;;;;;;;;;20.35;48.77;102043.88;2083663;28;1076;-74
2021/03/07 02:56:22;;;;;;;;;;;;;;;20.35;48.84;102045.88;2091500;28;1223;-73
2021/03/07 02:57:23;;;;;;;;;;;;;;;20.36;48.78;102047.56;2090458;28;1802;-73
2021/03/07 02:58:24;;;;;;;;;;;;;;;20.35;48.92;102046.72;2090748;28;1696;-73
2021/03/07 02:59:25;;;;;;;;;;;;;;;20.36;48.79;102041.88;2086366;28;995;-73
2021/03/07 03:00:26;;;;;;;;;;;;;;;20.35;49.02;102043.88;2080751;28;1945;-74
2021/03/07 03:01:26;;;;;;;;;;;;;;;20.35;48.98;102049.56;2080771;28;1522;-73
2021/03/07 03:02:27;;;;;;;;;;;;;;;20.36;48.97;102045.53;2090691;28;1838;-73
2021/03/07 03:03:28;;;;;;;;;;;;;;;20.35;48.88;102040.19;2089326;28;1036;-75
2021/03/07 03:04:29;;;;;;;;;;;;;;;20.35;48.95;102049.56;2088492;28;1914;-75
2021/03/07 03:05:30;;;;;;;;;;;;;;;20.35;49.00;102043.03;2091222;28;1323;-75
2021/03/07 03:06:31;;;;;;;;;;;;;;;20.35;48.85;102041.03;2085381;28;1692;-76
2021/03/07 03:07:31;;;;;;;;;;;;;;;20.35;48.90;102041.03;2090466;28;1929;-75
2021/03/07 03:08:32;;;;;;;;;;;;;;;20.34;49.00;102042.16;2087125;28;1290;-75
2021/03/07 03:09:33;;;;;;;;;;;;;;;20.35;48.98;102043.88;2085244;28;2124;-75
2021/03/07 03:10:34;;;;;;;;;;;;;;;20.35;49.06;102032.50;2091382;28;1097;-75
2021/03/07 03:11:34;;;;;;;;;;;;;;;20.34;48.83;102039.31;2091098;28;1131;-75
2021/03/07 03:12:35;;;;;;;;;;;;;;;20.34;48.88;102036.47;2084981;28;1960;-75
2021/03/07 03:13:36;;;;;;;;;;;;;;;20.34;48.83;102033.63;2089158;28;1188;-75
2021/03/07 03:14:37;;;;;;;;;;;;;;;20.34;48.98;102036.47;2088678;28;1346;-75
2021/03/07 03:15:37;;;;;;;;;;;;;;;20.34;49.03;102033.63;2084807;28;1455;-75
2021/03/07 03:16:38;;;;;;;;;;;;;;;20.34;48.96;102030.78;2091014;28;1158;-76
2021/03/07 03:17:39;;;;;;;;;;;;;;;20.34;49.00;102033.63;2091371;28;1861;-75
2021/03/07 03:18:40;;;;;;;;;;;;;;;20.34;49.00;102025.13;2086797;28;1638;-75
2021/03/07 03:19:41;;;;;;;;;;;;;;;20.34;48.92;102033.63;2086188;28;1103;-75
2021/03/07 03:20:42;;;;;;;;;;;;;;;20.34;49.03;102025.13;2083481;28;1210;-75
2021/03/07 03:21:43;;;;;;;;;;;;;;;20.34;48.91;102027.13;2091199;28;1095;-78
2021/03/07 03:22:43;;;;;;;;;;;;;;;20.33;48.87;102012.06;2090613;28;2086;-75
2021/03/07 03:23:44;;;;;;;;;;;;;;;20.34;49.07;102025.13;2083006;28;1121;-76
2021/03/07 03:24:45;;;;;;;;;;;;;;;20.34;49.05;102024.28;2089314;28;1962;-75
2021/03/07 03:25:46;;;;;;;;;;;;;;;20.33;49.11;102023.44;2091140;28;1240;-75
2021/03/07 03:26:46;;;;;;;;;;;;;;;20.34;48.99;102025.13;2090079;28;1504;-75
2021/03/07 03:27:47;;;;;;;;;;;;;;;20.34;49.04;102019.44;2090493;28;1390;-75
2021/03/07 03:28:48;;;;;;;;;;;;;;;20.34;49.02;102025.13;2087498;28;1359;-76
2021/03/07 03:29:48;;;;;;;;;;;;;;;20.34;49.19;102025.13;2088959;28;2205;-75
2021/03/07 03:30:49;;;;;;;;;;;;;;;20.34;49.05;102022.28;2090498;28;1668;-75
2021/03/07 03:31:50;;;;;;;;;;;;;;;20.33;49.23;102016.94;2086667;28;1146;-75
2021/03/07 03:32:51;;;;;;;;;;;;;;;20.33;49.02;102012.06;2091307;28;1087;-75
2021/03/07 03:33:52;;;;;;;;;;;;;;;20.34;49.04;102018.59;2085900;28;1071;-75
2021/03/07 03:34:53;;;;;;;;;;;;;;;20.34;49.00;102022.28;2089384;28;1700;-75
2021/03/07 03:35:54;;;;;;;;;;;;;;;20.34;49.19;102016.59;2091253;28;1204;-76
2021/03/07 03:36:56;;;;;;;;;;;;;;;20.34;49.17;102019.44;2090340;28;1099;-75
2021/03/07 03:37:56;;;;;;;;;;;;;;;20.34;49.13;102015.75;2091453;28;1111;-76
2021/03/07 03:38:57;;;;;;;;;;;;;;;20.35;49.33;102018.28;2090951;28;1231;-76
2021/03/07 03:39:58;;;;;;;;;;;;;;;20.35;49.21;102021.13;2080306;28;1754;-75
2021/03/07 03:40:58;;;;;;;;;;;;;;;20.35;49.25;102006.09;2082612;28;1067;-74
2021/03/07 03:41:59;;;;;;;;;;;;;;;20.36;49.20;102019.13;2091254;28;1137;-76
2021/03/07 03:43:00;;;;;;;;;;;;;;;20.35;49.26;102015.44;2090558;28;1091;-75
2021/03/07 03:44:01;;;;;;;;;;;;;;;20.35;49.21;102020.28;2090740;28;1137;-75
2021/03/07 03:45:01;;;;;;;;;;;;;;;20.34;49.24;102005.22;2086746;28;1977;-74
2021/03/07 03:46:02;;;;;;;;;;;;;;;20.36;49.18;102013.44;2090750;28;1094;-74
2021/03/07 03:47:03;;;;;;;;;;;;;;;20.34;49.27;102010.91;2091034;28;1262;-75
2021/03/07 03:48:04;;;;;;;;;;;;;;;20.35;49.42;102018.28;2090077;28;949;-75
2021/03/07 03:49:05;;;;;;;;;;;;;;;20.36;49.31;102017.13;2086896;28;992;-75
2021/03/07 03:50:06;;;;;;;;;;;;;;;20.35;49.25;102006.91;2088330;28;1775;-74
2021/03/07 03:51:06;;;;;;;;;;;;;;;20.36;49.31;102017.13;2086920;28;1041;-75
2021/03/07 03:52:07;;;;;;;;;;;;;;;20.36;49.33;102008.59;2090135;28;1313;-75
2021/03/07 03:53:08;;;;;;;;;;;;;;;20.36;49.34;102002.91;2088745;28;1720;-74
2021/03/07 03:54:09;;;;;;;;;;;;;;;20.37;49.29;102018.81;2090586;28;1099;-74
2021/03/07 03:55:09;;;;;;;;;;;;;;;20.36;49.29;102008.59;2089593;28;1101;-73
2021/03/07 03:56:10;;;;;;;;;;;;;;;20.36;49.39;102005.75;2090356;28;1067;-74
2021/03/07 03:57:11;;;;;;;;;;;;;;;20.37;49.36;102007.44;2090181;28;1789;-75
2021/03/07 03:58:12;;;;;;;;;;;;;;;20.37;49.47;102012.25;2087584;28;2113;-76
2021/03/07 03:59:12;;;;;;;;;;;;;;;20.37;49.38;102009.44;2085998;28;1079;-75
2021/03/07 04:00:13;;;;;;;;;;;;;;;20.37;49.36;102004.59;2083431;28;1117;-76
2021/03/07 04:01:14;;;;;;;;;;;;;;;20.37;49.46;102010.28;2086877;28;1133;-75
2021/03/07 04:02:15;;;;;;;;;;;;;;;20.37;49.33;102007.44;2090330;28;1778;-75
2021/03/07 04:03:16;;;;;;;;;;;;;;;20.37;49.55;102007.44;2090664;28;1087;-75
2021/03/07 04:04:18;;;;;;;;;;;;;;;20.37;49.54;102010.28;2072180;28;1732;-76
2021/03/07 04:05:18;;;;;;;;;;;;;;;20.37;49.45;102010.28;2073763;28;1914;-75
2021/03/07 04:06:19;;;;;;;;;;;;;;;20.38;49.49;102002.59;2086622;28;1956;-75
2021/03/07 04:07:20;;;;;;;;;;;;;;;20.37;49.52;102003.75;2085618;28;1560;-75
2021/03/07 04:08:21;;;;;;;;;;;;;;;20.37;49.47;101998.91;2090594;28;2035;-76
2021/03/07 04:09:22;;;;;;;;;;;;;;;20.37;49.47;101995.22;2089832;28;1674;-75
2021/03/07 04:10:22;;;;;;;;;;;;;;;20.37;49.46;101998.91;2088712;28;2353;-75
2021/03/07 04:11:23;;;;;;;;;;;;;;;20.38;49.63;101999.75;2088888;28;1121;-73
2021/03/07 04:12:24;;;;;;;;;;;;;;;20.37;49.57;102000.91;2088365;28;1063;-73
2021/03/07 04:13:25;;;;;;;;;;;;;;;20.37;49.69;102007.44;2089192;28;1563;-73
2021/03/07 04:14:25;;;;;;;;;;;;;;;20.37;49.65;102009.44;2086478;28;1706;-74
2021/03/07 04:15:27;;;;;;;;;;;;;;;20.37;49.57;102004.59;2090589;28;1835;-74
2021/03/07 04:16:28;;;;;;;;;;;;;;;20.37;49.57;102010.28;2089349;28;1735;-75
2021/03/07 04:17:29;;;;;;;;;;;;;;;20.37;49.59;101998.06;2089737;28;1444;-76
2021/03/07 04:18:30;;;;;;;;;;;;;;;20.36;49.84;101994.38;2089946;28;1809;-74
2021/03/07 04:19:31;;;;;;;;;;;;;;;20.38;50.03;101991.22;2088706;28;1164;-74
2021/03/07 04:20:32;;;;;;;;;;;;;;;20.39;50.11;101992.91;2086024;28;1199;-74
2021/03/07 04:21:32;;;;;;;;;;;;;;;20.38;50.06;102000.59;2087085;28;1120;-74
2021/03/07 04:22:33;;;;;;;;;;;;;;;20.38;50.06;101997.75;2085291;28;1101;-74
2021/03/07 04:23:34;;;;;;;;;;;;;;;20.38;50.05;102000.59;2089398;28;1640;-74
2021/03/07 04:24:34;;;;;;;;;;;;;;;20.38;50.03;101992.06;2090291;28;1100;-74
2021/03/07 04:25:35;;;;;;;;;;;;;;;20.39;50.14;101992.91;2088214;28;1914;-74
2021/03/07 04:26:36;;;;;;;;;;;;;;;20.38;50.13;101994.91;2085425;28;1076;-74
2021/03/07 04:27:37;;;;;;;;;;;;;;;20.38;50.08;101994.91;2090607;28;1144;-74
2021/03/07 04:28:37;;;;;;;;;;;;;;;20.38;50.22;101997.75;2089612;28;1817;-74
2021/03/07 04:29:38;;;;;;;;;;;;;;;20.39;50.18;101990.06;2090491;28;1475;-74
2021/03/07 04:30:39;;;;;;;;;;;;;;;20.39;50.12;101990.06;2087351;28;2574;-74
2021/03/07 04:31:40;;;;;;;;;;;;;;;20.38;50.36;101986.38;2083294;28;1060;-74
2021/03/07 04:32:41;;;;;;;;;;;;;;;20.39;50.18;101993.72;2081866;28;1092;-74
2021/03/07 04:33:42;;;;;;;;;;;;;;;20.37;50.14;101986.69;2081081;28;1730;-74
2021/03/07 04:34:42;;;;;;;;;;;;;;;20.40;50.29;101988.88;2090291;28;1044;-74
2021/03/07 04:35:43;;;;;;;;;;;;;;;20.39;50.38;101987.22;2088472;28;1571;-74
2021/03/07 04:36:44;;;;;;;;;;;;;;;20.38;50.33;101983.53;2090482;28;1178;-72
2021/03/07 04:37:44;;;;;;;;;;;;;;;20.38;50.39;101979.88;2090126;28;1118;-72
2021/03/07 04:38:45;;;;;;;;;;;;;;;20.38;50.21;101988.38;2089816;28;1861;-72
2021/03/07 04:39:46;;;;;;;;;;;;;;;20.38;50.28;101983.53;2090164;28;1711;-73
2021/03/07 04:40:47;;;;;;;;;;;;;;;20.39;50.24;101984.38;2089568;28;1091;-73
2021/03/07 04:41:47;;;;;;;;;;;;;;;20.38;50.26;101979.88;2090422;28;1196;-73
2021/03/07 04:42:53;;;;;;;;;;;;;;;20.38;50.23;101980.69;2090038;28;1460;-73
2021/03/07 04:43:55;;;;;;;;;;;;;;;20.39;50.17;101975.84;2090179;28;1713;-73
2021/03/07 04:44:55;;;;;;;;;;;;;;;20.38;50.14;101983.53;2088905;28;1915;-73
2021/03/07 04:45:56;;;;;;;;;;;;;;;20.38;50.27;101980.69;2090047;28;1778;-73
2021/03/07 04:46:58;;;;;;;;;;;;;;;20.39;50.21;101975.84;2089259;28;1083;-73
2021/03/07 04:48:01;;;;;;;;;;;;;;;20.37;50.20;101973.34;2087581;28;1711;-72
2021/03/07 04:49:02;;;;;;;;;;;;;;;20.39;50.19;101971.00;2089681;28;2312;-73
2021/03/07 04:50:03;;;;;;;;;;;;;;;20.39;50.11;101976.69;2090979;28;1643;-73
2021/03/07 04:51:04;;;;;;;;;;;;;;;20.39;50.27;101973.00;2086906;28;2051;-73
2021/03/07 04:52:04;;;;;;;;;;;;;;;20.39;50.33;101971.00;2085133;28;1669;-73
2021/03/07 04:53:05;;;;;;;;;;;;;;;20.39;50.20;101978.69;2088318;28;1536;-72
2021/03/07 04:54:06;;;;;;;;;;;;;;;20.40;50.21;101974.66;2089943;28;2095;-72
2021/03/07 04:55:07;;;;;;;;;;;;;;;20.40;50.31;101980.34;2088875;28;2126;-72
2021/03/07 04:56:07;;;;;;;;;;;;;;;20.39;50.36;101976.69;2089191;28;1655;-74
2021/03/07 04:57:08;;;;;;;;;;;;;;;20.40;50.36;101966.16;2087197;28;1182;-75
2021/03/07 04:58:09;;;;;;;;;;;;;;;20.40;50.21;101972.69;2084589;28;1544;-75
2021/03/07 04:59:10;;;;;;;;;;;;;;;20.40;50.37;101974.66;2088965;28;1696;-75
2021/03/07 05:00:10;;;;;;;;;;;;;;;20.39;50.30;101965.31;2087102;28;1796;-75
2021/03/07 05:01:11;;;;;;;;;;;;;;;20.40;50.32;101972.69;2085140;28;1033;-75
2021/03/07 05:02:12;;;;;;;;;;;;;;;20.40;50.28;101971.84;2088261;28;1070;-75
2021/03/07 05:03:13;;;;;;;;;;;;;;;20.40;50.32;101964.16;2086280;28;1760;-75
2021/03/07 05:04:14;;;;;;;;;;;;;;;20.39;50.31;101965.31;2089557;28;1519;-75
2021/03/07 05:05:15;;;;;;;;;;;;;;;20.41;50.36;101953.63;2087723;28;2323;-75
2021/03/07 05:06:16;;;;;;;;;;;;;;;20.40;50.19;101960.47;2084938;28;1099;-75
2021/03/07 05:07:17;;;;;;;;;;;;;;;20.39;50.33;101959.63;2090255;28;1254;-75
2021/03/07 05:08:17;;;;;;;;;;;;;;;20.39;50.41;101961.63;2088362;28;1650;-74
2021/03/07 05:09:18;;;;;;;;;;;;;;;20.40;50.34;101960.47;2087714;28;1494;-75
2021/03/07 05:10:19;;;;;;;;;;;;;;;20.39;50.35;101961.63;2089508;28;2086;-75
2021/03/07 05:11:23;;;;;;;;;;;;;;;20.38;50.29;101957.97;2089881;28;1773;-75
2021/03/07 05:12:24;;;;;;;;;;;;;;;20.39;50.22;101955.94;2089789;28;1644;-74
2021/03/07 05:13:36;;;;;;;;;;;;;;;20.39;50.26;101956.78;2090790;28;1079;-75
2021/03/07 05:14:37;;;;;;;;;;;;;;;20.38;50.39;101957.97;2085956;28;1195;-74
2021/03/07 05:15:37;;;;;;;;;;;;;;;20.38;50.31;101955.13;2086771;28;1014;-73
2021/03/07 05:16:38;;;;;;;;;;;;;;;20.39;50.29;101955.94;2089878;28;1892;-74
2021/03/07 05:17:39;;;;;;;;;;;;;;;20.38;50.33;101957.13;2089678;28;1219;-75